< < Back
Terminal Aerodrome Forecast


Current Version              Previous Versions:   1  2  3  4  5  6  7  8  9  

Terminal Aerodrome Forecast

050
FTUS42 KFFC 310520
TAFCSG
TAF
KCSG 310520Z 3106/0106 00000KT P6SM SKC
     FM311400 12004KT P6SM FEW200
     FM311700 12004KT P6SM BKN200
     FM010000 00000KT P6SM BKN150=

Latest METAR

377
SAUS70 KWBC 311900 RRA
MTRCSG
METAR KCSG 311851Z VRB03KT 10SM CLR 13/M07 A3032 RMK AO2 SLP266
T01331067 $


USA.gov is the U.S. government's official web portal to all federal, state and local government web resources and services.